This is the latest recevied weather packets stored in our database for station/object DO6DD-13. If no packets are shown the sender has not sent any weather packets the latest 10 day(s).
| Time | Temp. | Humidity | Pressure | Rain* | Wind** | Luminosity | Snow |
|---|---|---|---|---|---|---|---|
| 1777905624 | 20° C | 62% | 1012.6 hPa | - | - | 126 W/m² | - |
| 1777905024 | 19.44° C | 63% | 1012.7 hPa | - | - | 90 W/m² | - |
| 1777904423 | 20° C | 63% | 1012.8 hPa | - | - | 74 W/m² | - |
| 1777903823 | 20° C | 62% | 1012.8 hPa | - | - | 106 W/m² | - |
| 1777903222 | 20° C | 62% | 1012.8 hPa | - | - | 140 W/m² | - |
| 1777902622 | 20° C | 61% | 1012.9 hPa | - | - | 148 W/m² | - |
| 1777902021 | 20° C | 61% | 1012.9 hPa | - | - | 182 W/m² | - |
| 1777901421 | 20.56° C | 60% | 1012.9 hPa | - | - | 198 W/m² | - |
| 1777900820 | 20° C | 60% | 1013 hPa | - | - | 218 W/m² | - |
| 1777900220 | 20.56° C | 61% | 1013 hPa | - | - | 198 W/m² | - |
| 1777899619 | 20.56° C | 61% | 1013 hPa | - | - | 218 W/m² | - |
| 1777899019 | 20.56° C | 61% | 1013 hPa | - | - | 284 W/m² | - |
| 1777898419 | 20.56° C | 62% | 1013 hPa | - | - | 368 W/m² | - |
| 1777897818 | 20° C | 62% | 1013.1 hPa | - | - | 206 W/m² | - |
| 1777897218 | 19.44° C | 62% | 1013.1 hPa | - | - | 176 W/m² | - |
| 1777896617 | 20° C | 61% | 1013.1 hPa | - | - | 252 W/m² | - |
| 1777896017 | 20° C | 62% | 1013.2 hPa | - | - | 300 W/m² | - |
| 1777895416 | 19.44° C | 63% | 1013.3 hPa | - | - | 180 W/m² | - |
| 1777894816 | 19.44° C | 64% | 1013.3 hPa | - | - | 160 W/m² | - |
| 1777894225 | 19.44° C | 65% | 1013.4 hPa | - | - | 226 W/m² | - |
| 1777893625 | 18.89° C | 65% | 1013.5 hPa | - | - | 302 W/m² | - |
| 1777893024 | 19.44° C | 66% | 1013.5 hPa | - | - | 420 W/m² | - |
| 1777892424 | 18.33° C | 68% | 1013.6 hPa | - | - | 274 W/m² | - |
| 1777891823 | 18.33° C | 67% | 1013.7 hPa | - | - | 184 W/m² | - |
| 1777891223 | 18.89° C | 67% | 1013.7 hPa | - | - | 282 W/m² | - |
* Rain since midnight (hover to see other rain measurements)
** Current wind speed in m/s (hover to see current wind gust speed)